Time;durP1;ratioP1;P1;durP2;ratioP2;P2;SDS_P1;SDS_P2;PMS_P1;PMS_P2;Temp;Humidity;BMP_temperature;BMP_pressure;BME280_temperature;BME280_humidity;BME280_pressure;Samples;Min_cycle;Max_cycle;Signal;HPM_P1;HPM_P2
2022/03/22 00:01:14;;;;;;;14.73;11.70;;;5.30;90.80;;;;;;5043435;28;20289;-60
2022/03/22 00:03:46;;;;;;;20.87;11.50;;;5.20;90.80;;;;;;5037512;28;20947;-61
2022/03/22 00:06:12;;;;;;;15.83;12.03;;;5.20;90.70;;;;;;5035263;28;20426;-64
2022/03/22 00:08:37;;;;;;;15.57;10.80;;;5.20;90.70;;;;;;5040985;28;20802;-59
2022/03/22 00:11:03;;;;;;;13.20;10.80;;;5.20;90.70;;;;;;5050258;28;20523;-60
2022/03/22 00:13:29;;;;;;;11.60;9.80;;;5.20;90.80;;;;;;5038287;28;20568;-59
2022/03/22 00:15:56;;;;;;;16.73;12.00;;;5.10;90.70;;;;;;5052289;28;20179;-66
2022/03/22 00:18:22;;;;;;;19.77;11.80;;;5.10;90.70;;;;;;5037211;28;20427;-62
2022/03/22 00:20:49;;;;;;;15.63;11.13;;;5.10;90.70;;;;;;5047069;28;20441;-60
2022/03/22 00:23:16;;;;;;;13.70;9.20;;;5.10;90.70;;;;;;5038792;28;20603;-64
2022/03/22 00:25:41;;;;;;;12.37;10.97;;;5.10;90.80;;;;;;5047929;28;20456;-63
2022/03/22 00:28:07;;;;;;;16.93;11.33;;;5.00;90.70;;;;;;5047661;28;20997;-60
2022/03/22 00:30:35;;;;;;;17.57;11.83;;;5.00;90.70;;;;;;5039474;28;20598;-59
2022/03/22 00:33:03;;;;;;;22.73;11.03;;;5.00;90.70;;;;;;5043178;28;20457;-62
2022/03/22 00:35:38;;;;;;;15.30;11.10;;;5.00;90.70;;;;;;5051447;28;20439;-59
2022/03/22 00:38:16;;;;;;;14.30;10.43;;;5.00;90.70;;;;;;5044813;28;20428;-64
2022/03/22 00:40:43;;;;;;;12.60;9.90;;;5.00;90.70;;;;;;5050551;28;20436;-65
2022/03/22 00:43:09;;;;;;;13.93;11.07;;;4.90;90.60;;;;;;5035737;28;20484;-64
2022/03/22 00:45:39;;;;;;;12.67;9.57;;;4.90;90.70;;;;;;5042229;28;20441;-64
2022/03/22 00:48:08;;;;;;;16.53;10.57;;;4.90;90.60;;;;;;5051070;28;20442;-65
2022/03/22 00:50:36;;;;;;;15.23;10.97;;;4.90;90.60;;;;;;5050629;28;20437;-60
2022/03/22 00:53:04;;;;;;;13.33;10.67;;;4.80;91.90;;;;;;5047389;28;20472;-62
2022/03/22 00:55:31;;;;;;;17.27;11.40;;;4.80;93.50;;;;;;5051197;28;20503;-64
2022/03/22 00:57:58;;;;;;;16.70;11.90;;;4.80;93.50;;;;;;5049697;28;20431;-60
2022/03/22 01:00:26;;;;;;;15.47;11.70;;;4.80;93.10;;;;;;5042079;28;20437;-60
2022/03/22 01:02:55;;;;;;;14.20;11.67;;;4.80;94.00;;;;;;5038155;28;20823;-64
2022/03/22 01:05:22;;;;;;;20.60;11.50;;;4.80;95.20;;;;;;5050227;28;20481;-64
2022/03/22 01:07:52;;;;;;;16.60;11.40;;;4.80;95.40;;;;;;5043007;28;20440;-60
2022/03/22 01:10:20;;;;;;;19.93;11.87;;;4.70;95.60;;;;;;5044026;28;20429;-65
2022/03/22 01:12:48;;;;;;;16.60;11.70;;;4.70;96.40;;;;;;5050522;28;20564;-63
2022/03/22 01:15:32;;;;;;;15.23;11.30;;;4.70;96.40;;;;;;5044510;28;20485;-59
2022/03/22 01:17:59;;;;;;;17.37;11.33;;;4.70;96.90;;;;;;5049903;28;20450;-64
2022/03/22 01:20:27;;;;;;;17.77;11.67;;;4.70;97.40;;;;;;5049910;28;20422;-60
2022/03/22 01:22:54;;;;;;;19.73;12.00;;;4.70;98.00;;;;;;5046086;28;21079;-60
2022/03/22 01:25:23;;;;;;;20.83;11.67;;;4.70;98.30;;;;;;5048669;28;20574;-60
2022/03/22 01:27:50;;;;;;;12.07;9.93;;;4.70;99.00;;;;;;5048928;28;20440;-63
2022/03/22 01:30:19;;;;;;;14.07;11.13;;;4.60;98.00;;;;;;5038870;28;20436;-63
2022/03/22 01:32:46;;;;;;;13.30;11.33;;;4.60;98.00;;;;;;5044390;28;20468;-65
2022/03/22 01:35:12;;;;;;;13.43;10.80;;;4.60;98.60;;;;;;5039972;28;20798;-59
2022/03/22 01:37:39;;;;;;;18.37;12.30;;;4.60;98.90;;;;;;5051915;28;20396;-59
2022/03/22 01:40:08;;;;;;;16.60;11.03;;;4.60;98.50;;;;;;5050435;28;20509;-64
2022/03/22 01:42:35;;;;;;;20.90;10.83;;;4.60;97.60;;;;;;5044072;28;20493;-63
2022/03/22 01:45:02;;;;;;;14.70;11.80;;;4.60;97.10;;;;;;5048087;28;20520;-63
2022/03/22 01:47:28;;;;;;;14.27;11.17;;;4.70;98.00;;;;;;5046204;28;20433;-64
2022/03/22 01:49:54;;;;;;;16.67;10.23;;;4.70;98.90;;;;;;5048586;28;20425;-60
2022/03/22 01:52:23;;;;;;;17.93;10.37;;;4.70;98.70;;;;;;5049308;28;20692;-64
2022/03/22 01:54:50;;;;;;;17.70;9.90;;;4.70;98.70;;;;;;5050631;28;20430;-60
2022/03/22 01:57:20;;;;;;;16.70;11.13;;;4.70;98.80;;;;;;5048102;28;20517;-60
2022/03/22 01:59:46;;;;;;;17.17;11.33;;;4.60;98.90;;;;;;5045889;28;20917;-63
2022/03/22 02:07:45;;;;;;;16.70;11.37;;;4.60;99.90;;;;;;5034190;28;20526;-65
2022/03/22 02:10:11;;;;;;;14.03;9.93;;;4.60;99.90;;;;;;5050366;28;20522;-60
2022/03/22 02:12:38;;;;;;;19.03;11.60;;;4.60;99.90;;;;;;5044720;28;20456;-64
2022/03/22 02:15:04;;;;;;;12.40;10.63;;;4.50;99.90;;;;;;5036543;28;20424;-64
2022/03/22 02:17:30;;;;;;;14.20;10.60;;;4.50;99.90;;;;;;5049974;28;20437;-64
2022/03/22 02:19:57;;;;;;;14.57;12.00;;;4.50;99.90;;;;;;5050050;28;20805;-60
2022/03/22 02:22:34;;;;;;;17.87;10.87;;;4.50;99.90;;;;;;5049712;28;20657;-65
2022/03/22 02:25:00;;;;;;;20.60;11.10;;;4.50;99.90;;;;;;5053501;28;20471;-64
2022/03/22 02:27:29;;;;;;;18.17;11.23;;;4.50;99.90;;;;;;5035472;28;20403;-63
2022/03/22 02:29:55;;;;;;;16.60;11.30;;;4.50;99.90;;;;;;5036952;28;20432;-63
2022/03/22 02:32:24;;;;;;;15.47;11.80;;;4.50;99.90;;;;;;5040986;28;20500;-60
2022/03/22 02:34:50;;;;;;;17.10;11.53;;;4.50;99.90;;;;;;5045672;28;20437;-63
2022/03/22 02:37:16;;;;;;;18.77;11.63;;;4.50;99.90;;;;;;5051661;28;20775;-62
2022/03/22 02:39:41;;;;;;;15.07;11.40;;;4.50;99.90;;;;;;5053067;28;20426;-64
2022/03/22 02:42:07;;;;;;;19.63;12.33;;;4.50;99.70;;;;;;5035177;28;20419;-64
2022/03/22 02:44:33;;;;;;;20.80;12.50;;;4.60;99.90;;;;;;5037464;28;21243;-64
2022/03/22 02:46:59;;;;;;;15.47;10.33;;;4.60;99.30;;;;;;5050461;28;20474;-60
2022/03/22 02:49:25;;;;;;;15.70;10.97;;;4.60;99.20;;;;;;5051503;28;20632;-59
2022/03/22 02:51:50;;;;;;;16.00;10.30;;;4.60;99.30;;;;;;5051244;28;20473;-64
2022/03/22 02:54:16;;;;;;;15.20;11.17;;;4.60;99.90;;;;;;5036175;28;20688;-63
2022/03/22 02:56:41;;;;;;;18.00;10.83;;;4.60;98.60;;;;;;5038841;28;20177;-63
2022/03/22 02:59:07;;;;;;;17.40;10.80;;;4.60;98.90;;;;;;5052801;28;20173;-61
2022/03/22 03:01:33;;;;;;;13.83;11.20;;;4.60;99.80;;;;;;5037906;28;20209;-63
2022/03/22 03:04:01;;;;;;;14.57;10.87;;;4.60;99.90;;;;;;5034901;28;20643;-59
2022/03/22 03:06:30;;;;;;;12.60;10.37;;;4.60;99.90;;;;;;5035041;28;20214;-64
2022/03/22 03:08:58;;;;;;;18.37;11.60;;;4.60;99.90;;;;;;5034310;28;20394;-64
2022/03/22 03:11:25;;;;;;;15.10;10.90;;;4.90;99.90;;;;;;5046017;28;20821;-63
2022/03/22 03:16:35;;;;;;;16.37;12.47;;;4.50;99.90;;;;;;5051464;28;20946;-63
2022/03/22 03:19:01;;;;;;;19.90;12.50;;;4.50;99.90;;;;;;5051826;28;20453;-62
2022/03/22 03:21:27;;;;;;;15.80;11.30;;;4.40;99.90;;;;;;5053866;28;20210;-59
2022/03/22 03:23:52;;;;;;;14.87;11.27;;;4.40;99.90;;;;;;5040585;28;20226;-60
2022/03/22 03:26:18;;;;;;;19.77;12.03;;;4.40;99.90;;;;;;5042747;28;20182;-59
2022/03/22 03:28:43;;;;;;;12.80;10.63;;;4.40;99.90;;;;;;5044409;28;20233;-59
2022/03/22 03:31:09;;;;;;;18.70;11.87;;;4.30;99.90;;;;;;5038139;28;20182;-64
2022/03/22 03:33:35;;;;;;;15.70;11.37;;;4.30;99.90;;;;;;5051181;28;20206;-64
2022/03/22 03:36:02;;;;;;;15.93;11.73;;;4.20;99.90;;;;;;5046694;28;20174;-63
2022/03/22 03:38:28;;;;;;;16.60;10.83;;;4.20;99.90;;;;;;5042254;28;20184;-66
2022/03/22 03:43:37;;;;;;;15.53;12.77;;;4.20;99.90;;;;;;5044538;28;20254;-63
2022/03/22 03:48:47;;;;;;;15.03;11.27;;;4.20;99.90;;;;;;5032232;28;20190;-65
2022/03/22 03:51:13;;;;;;;18.40;10.57;;;4.10;99.90;;;;;;5053175;28;20455;-59
2022/03/22 03:53:38;;;;;;;14.10;11.20;;;4.10;99.90;;;;;;5045831;28;20202;-59
2022/03/22 03:56:04;;;;;;;17.63;11.30;;;4.10;99.90;;;;;;5052893;28;20224;-60
2022/03/22 03:58:30;;;;;;;16.17;11.83;;;4.10;99.90;;;;;;5050829;28;20200;-66
2022/03/22 04:00:56;;;;;;;13.57;10.50;;;4.10;99.90;;;;;;5049287;28;20806;-59
2022/03/22 04:03:22;;;;;;;15.80;10.50;;;4.00;99.90;;;;;;5045688;28;20445;-64
2022/03/22 04:05:47;;;;;;;16.30;12.07;;;3.90;99.90;;;;;;5052843;28;20183;-60
2022/03/22 04:08:13;;;;;;;19.53;11.90;;;3.90;99.90;;;;;;5050141;28;20226;-59
2022/03/22 04:10:38;;;;;;;16.97;10.60;;;3.90;99.90;;;;;;5053335;28;20168;-60
2022/03/22 04:13:04;;;;;;;15.93;12.70;;;3.80;99.90;;;;;;5045837;28;20235;-65
2022/03/22 04:15:30;;;;;;;17.17;10.47;;;3.80;99.90;;;;;;5053154;28;20185;-64
2022/03/22 04:17:59;;;;;;;16.80;12.00;;;3.70;99.90;;;;;;5051597;28;20184;-65
2022/03/22 04:20:26;;;;;;;13.97;11.10;;;3.70;99.90;;;;;;5051014;28;20436;-60
2022/03/22 04:22:51;;;;;;;15.10;10.60;;;3.60;99.90;;;;;;5045233;28;20542;-60
2022/03/22 04:25:18;;;;;;;19.20;12.73;;;3.60;99.90;;;;;;5051365;28;20508;-60
2022/03/22 04:33:11;;;;;;;15.60;11.17;;;3.50;99.90;;;;;;5047525;28;20469;-63
2022/03/22 04:35:39;;;;;;;13.10;10.40;;;3.40;99.90;;;;;;5053695;28;20397;-64
2022/03/22 04:38:04;;;;;;;16.20;11.80;;;3.40;99.90;;;;;;5049158;28;20178;-64
2022/03/22 04:40:31;;;;;;;14.40;11.67;;;3.40;99.90;;;;;;5031969;28;20413;-64
2022/03/22 04:42:57;;;;;;;18.70;11.30;;;3.30;99.90;;;;;;5045450;28;20298;-65
2022/03/22 04:45:23;;;;;;;17.23;10.67;;;3.30;99.90;;;;;;5047170;28;21025;-64
2022/03/22 04:47:49;;;;;;;17.67;11.57;;;3.30;99.90;;;;;;5051946;28;20178;-63
2022/03/22 04:50:16;;;;;;;17.50;12.57;;;3.30;99.90;;;;;;5047448;28;20916;-59
2022/03/22 04:58:10;;;;;;;18.17;11.20;;;3.10;99.90;;;;;;5048555;28;20805;-60
2022/03/22 05:00:35;;;;;;;18.70;10.77;;;3.10;99.90;;;;;;5041172;28;20421;-59
2022/03/22 05:03:03;;;;;;;17.43;11.30;;;3.00;99.90;;;;;;5041737;28;20683;-63
2022/03/22 05:08:13;;;;;;;15.67;10.97;;;2.90;99.90;;;;;;5040889;28;20486;-64
2022/03/22 05:10:38;;;;;;;17.60;12.37;;;2.90;99.90;;;;;;5047054;28;20926;-60
2022/03/22 05:13:05;;;;;;;20.63;13.30;;;2.90;99.90;;;;;;5040424;28;20211;-64
2022/03/22 05:15:32;;;;;;;18.80;12.20;;;2.90;99.90;;;;;;5034502;28;20176;-62
2022/03/22 05:17:58;;;;;;;22.10;14.47;;;2.90;99.90;;;;;;5051004;28;20464;-60
2022/03/22 05:20:24;;;;;;;20.30;12.77;;;2.80;99.90;;;;;;5050353;28;20429;-63
2022/03/22 05:22:50;;;;;;;20.37;11.83;;;2.80;99.90;;;;;;5032935;28;20481;-59
2022/03/22 05:25:16;;;;;;;17.40;11.73;;;2.80;99.90;;;;;;5050821;28;20468;-61
2022/03/22 05:27:42;;;;;;;12.67;10.50;;;2.80;99.90;;;;;;5035428;28;20729;-64
2022/03/22 05:30:08;;;;;;;14.97;10.90;;;2.80;99.90;;;;;;5046434;28;20425;-61
2022/03/22 05:32:35;;;;;;;14.83;11.23;;;2.80;99.90;;;;;;5043913;28;20195;-67
2022/03/22 05:35:00;;;;;;;17.63;11.13;;;2.70;99.90;;;;;;5051058;28;20433;-65
2022/03/22 05:37:26;;;;;;;19.83;13.07;;;2.80;99.90;;;;;;5049383;28;20436;-63
2022/03/22 05:39:52;;;;;;;15.87;13.13;;;2.80;99.90;;;;;;5052405;28;20229;-63
2022/03/22 05:42:18;;;;;;;17.97;12.07;;;2.70;99.90;;;;;;5040257;28;20489;-67
2022/03/22 05:44:44;;;;;;;21.33;12.70;;;2.90;99.90;;;;;;5034809;28;20237;-64
2022/03/22 05:47:10;;;;;;;16.83;11.50;;;2.80;99.90;;;;;;5040203;28;20182;-60
2022/03/22 05:49:36;;;;;;;17.57;11.40;;;2.90;99.90;;;;;;5040342;28;20934;-64
2022/03/22 05:52:06;;;;;;;16.50;12.10;;;3.00;99.90;;;;;;5053920;28;20444;-61
2022/03/22 05:54:32;;;;;;;22.10;12.13;;;3.00;99.90;;;;;;5048987;28;20612;-64
2022/03/22 05:56:58;;;;;;;20.03;12.20;;;3.10;99.90;;;;;;5039537;28;20417;-60
2022/03/22 05:59:24;;;;;;;18.17;12.40;;;3.10;99.90;;;;;;5049963;28;20464;-61
2022/03/22 06:01:50;;;;;;;17.90;12.30;;;3.10;99.90;;;;;;5035860;28;20414;-65
2022/03/22 06:04:16;;;;;;;17.00;11.80;;;3.20;99.90;;;;;;5042671;28;20225;-64
2022/03/22 06:06:42;;;;;;;16.97;12.23;;;3.30;99.90;;;;;;5055334;28;20173;-61
2022/03/22 06:09:08;;;;;;;15.87;11.03;;;3.40;99.90;;;;;;5041060;28;20421;-60
2022/03/22 06:11:35;;;;;;;18.40;12.10;;;3.50;99.90;;;;;;5055847;28;20472;-65
2022/03/22 06:14:05;;;;;;;17.13;12.10;;;3.60;99.90;;;;;;5050477;28;20552;-62
2022/03/22 06:16:31;;;;;;;18.97;13.17;;;3.70;99.90;;;;;;5035982;28;20414;-62
2022/03/22 06:18:58;;;;;;;17.70;11.77;;;3.80;99.90;;;;;;5046421;28;20421;-60
2022/03/22 06:21:24;;;;;;;17.77;11.30;;;4.00;99.90;;;;;;5036136;28;20793;-60
2022/03/22 06:23:49;;;;;;;15.57;11.20;;;4.20;99.90;;;;;;5041244;28;20420;-64
2022/03/22 06:26:15;;;;;;;14.97;11.70;;;4.40;99.90;;;;;;5054851;28;20636;-65
2022/03/22 06:28:41;;;;;;;19.63;11.87;;;4.60;99.90;;;;;;5040700;28;20758;-61
2022/03/22 06:31:08;;;;;;;15.00;10.87;;;4.70;99.90;;;;;;5055391;28;20179;-62
2022/03/22 06:33:34;;;;;;;17.03;11.70;;;4.90;99.90;;;;;;5053775;28;20529;-63
2022/03/22 06:36:00;;;;;;;19.50;12.10;;;5.00;99.90;;;;;;5034822;28;20456;-69
2022/03/22 06:38:26;;;;;;;16.27;11.43;;;5.10;99.90;;;;;;5049032;28;20240;-61
2022/03/22 06:40:52;;;;;;;15.70;12.47;;;5.30;99.90;;;;;;5034956;28;20171;-66
2022/03/22 06:43:20;;;;;;;13.67;11.33;;;5.40;99.90;;;;;;5035808;28;20429;-66
2022/03/22 06:45:46;;;;;;;17.40;11.70;;;5.50;99.90;;;;;;5053528;28;20432;-62
2022/03/22 06:48:13;;;;;;;20.20;12.50;;;5.60;99.90;;;;;;5042787;28;20923;-64
2022/03/22 06:50:39;;;;;;;17.97;11.70;;;5.60;99.90;;;;;;5051496;28;20511;-65
2022/03/22 06:53:07;;;;;;;16.67;11.87;;;5.70;99.90;;;;;;5055049;28;20464;-61
2022/03/22 06:55:34;;;;;;;16.53;12.33;;;5.70;99.90;;;;;;5049707;28;20413;-64
2022/03/22 06:58:00;;;;;;;13.93;11.87;;;5.80;99.90;;;;;;5043686;28;20945;-61
2022/03/22 07:00:31;;;;;;;15.40;11.77;;;5.80;99.90;;;;;;5034754;28;20405;-61
2022/03/22 07:02:57;;;;;;;19.33;11.90;;;5.90;99.90;;;;;;5034891;28;20509;-64
2022/03/22 07:05:23;;;;;;;12.90;10.63;;;5.90;99.90;;;;;;5035138;28;20403;-61
2022/03/22 07:07:49;;;;;;;15.23;11.43;;;6.00;99.90;;;;;;5043722;28;20972;-61
2022/03/22 07:10:17;;;;;;;17.90;12.90;;;6.10;99.90;;;;;;5054508;28;20416;-61
2022/03/22 07:12:57;;;;;;;14.83;11.60;;;6.10;99.90;;;;;;5055195;28;20187;-66
2022/03/22 07:15:28;;;;;;;17.30;12.23;;;6.10;99.90;;;;;;5054932;28;20393;-61
2022/03/22 07:17:54;;;;;;;14.90;10.90;;;6.20;99.90;;;;;;5046752;28;20414;-64
2022/03/22 07:20:20;;;;;;;17.20;11.80;;;6.30;99.90;;;;;;5034157;28;20403;-64
2022/03/22 07:22:47;;;;;;;18.57;12.10;;;6.40;99.90;;;;;;5034932;28;20183;-62
2022/03/22 07:25:13;;;;;;;17.83;11.03;;;6.50;99.90;;;;;;5037601;28;20394;-61
2022/03/22 07:27:39;;;;;;;21.80;13.60;;;6.50;99.90;;;;;;5035104;28;20752;-64
2022/03/22 07:30:05;;;;;;;14.43;12.60;;;6.60;99.90;;;;;;5033348;28;20425;-64
2022/03/22 07:32:31;;;;;;;18.73;13.20;;;6.70;99.90;;;;;;5034864;28;20682;-60
2022/03/22 07:35:00;;;;;;;17.67;12.60;;;6.80;99.90;;;;;;5049955;28;20453;-61
2022/03/22 07:37:29;;;;;;;13.10;11.70;;;6.90;99.90;;;;;;5050306;28;20648;-63
2022/03/22 07:39:57;;;;;;;18.80;12.50;;;6.90;99.90;;;;;;5046518;28;20409;-60
2022/03/22 07:42:29;;;;;;;17.40;12.40;;;7.00;99.90;;;;;;5054700;28;20789;-64
2022/03/22 07:44:57;;;;;;;17.77;11.87;;;7.10;99.90;;;;;;5040928;28;20440;-65
2022/03/22 07:47:23;;;;;;;16.93;13.00;;;7.20;99.90;;;;;;5049559;28;20423;-61
2022/03/22 07:55:18;;;;;;;15.50;12.27;;;7.50;99.90;;;;;;5053962;28;20467;-64
2022/03/22 07:57:44;;;;;;;16.00;12.10;;;7.60;99.90;;;;;;5036533;28;20418;-66
2022/03/22 08:00:10;;;;;;;13.83;11.97;;;7.70;99.90;;;;;;5036053;28;20168;-65
2022/03/22 08:02:37;;;;;;;19.23;11.87;;;7.80;99.90;;;;;;5054273;28;20748;-67
2022/03/22 08:05:05;;;;;;;15.20;12.97;;;7.90;99.90;;;;;;5053029;28;20429;-62
2022/03/22 08:07:31;;;;;;;18.77;12.70;;;8.00;99.90;;;;;;5048771;28;20410;-66
2022/03/22 08:09:57;;;;;;;18.47;11.57;;;8.10;99.90;;;;;;5052777;28;20430;-63
2022/03/22 08:12:23;;;;;;;15.60;11.97;;;8.20;99.90;;;;;;5032557;28;20263;-63
2022/03/22 08:14:48;;;;;;;18.63;12.50;;;8.30;99.90;;;;;;5033302;28;20203;-66
2022/03/22 08:17:14;;;;;;;12.40;10.43;;;8.40;99.90;;;;;;5038557;28;20203;-64
2022/03/22 08:19:39;;;;;;;20.40;13.23;;;8.50;99.90;;;;;;5033111;28;20178;-63
2022/03/22 08:22:05;;;;;;;18.27;13.27;;;8.60;99.90;;;;;;5049869;28;20187;-70
2022/03/22 08:24:31;;;;;;;17.23;11.90;;;8.70;99.90;;;;;;5053450;28;20168;-69
2022/03/22 08:26:57;;;;;;;19.88;12.57;;;8.90;99.90;;;;;;5042779;28;20444;-68
2022/03/22 08:29:25;;;;;;;21.23;13.90;;;9.00;99.90;;;;;;5052776;28;20212;-69
2022/03/22 08:31:52;;;;;;;14.33;12.40;;;9.10;99.90;;;;;;5035329;28;20343;-66
2022/03/22 08:34:18;;;;;;;18.03;13.20;;;9.10;99.90;;;;;;5033786;28;20488;-66
2022/03/22 08:36:44;;;;;;;14.73;12.97;;;9.20;99.90;;;;;;5041181;28;20431;-66
2022/03/22 08:39:11;;;;;;;17.77;13.47;;;9.50;99.90;;;;;;5032915;28;20399;-71
2022/03/22 08:41:36;;;;;;;18.40;13.60;;;9.70;99.90;;;;;;5036732;28;20198;-67
2022/03/22 08:44:02;;;;;;;16.97;12.87;;;9.90;99.90;;;;;;5033042;28;20415;-66
2022/03/22 08:46:28;;;;;;;16.23;13.03;;;10.10;99.90;;;;;;5039096;28;20177;-71
2022/03/22 08:48:55;;;;;;;20.83;13.60;;;10.30;99.90;;;;;;5051479;28;20743;-63
2022/03/22 08:51:23;;;;;;;21.67;14.17;;;10.40;99.90;;;;;;5037847;28;20214;-67
2022/03/22 08:53:49;;;;;;;19.07;13.47;;;10.60;99.90;;;;;;5032990;28;20930;-64
2022/03/22 08:56:15;;;;;;;21.20;13.90;;;10.80;99.90;;;;;;5036591;28;20467;-69
2022/03/22 08:58:41;;;;;;;19.63;13.70;;;11.00;99.90;;;;;;5052586;28;20167;-69
2022/03/22 09:01:07;;;;;;;19.00;14.43;;;11.20;99.90;;;;;;5053204;28;20171;-69
2022/03/22 09:03:35;;;;;;;17.40;13.43;;;11.40;99.90;;;;;;5052997;28;20404;-64
2022/03/22 09:06:12;;;;;;;16.07;12.43;;;11.70;99.90;;;;;;5051851;28;20391;-64
2022/03/22 09:08:42;;;;;;;19.50;13.80;;;11.90;99.90;;;;;;5032595;28;20381;-64
2022/03/22 09:11:09;;;;;;;20.70;13.03;;;12.00;99.90;;;;;;5032859;28;20406;-64
2022/03/22 09:13:37;;;;;;;22.50;13.70;;;12.20;99.90;;;;;;5033193;28;20546;-68
2022/03/22 09:16:04;;;;;;;15.33;12.87;;;12.30;99.90;;;;;;5035654;28;20372;-69
2022/03/22 09:18:29;;;;;;;17.97;13.97;;;12.50;99.90;;;;;;5032660;28;20429;-70
2022/03/22 09:20:55;;;;;;;17.83;13.40;;;12.60;99.90;;;;;;5033060;28;20838;-64
2022/03/22 09:23:21;;;;;;;23.03;14.30;;;12.80;99.90;;;;;;5031843;28;20179;-65
2022/03/22 09:25:47;;;;;;;17.70;13.30;;;13.00;99.90;;;;;;5034576;28;20250;-66
2022/03/22 09:28:13;;;;;;;16.53;13.70;;;13.40;99.90;;;;;;5055620;28;20641;-64
2022/03/22 09:30:39;;;;;;;20.03;14.57;;;13.70;99.90;;;;;;5055788;28;20943;-63
2022/03/22 09:33:07;;;;;;;19.40;14.00;;;14.00;99.90;;;;;;5055240;28;20507;-67
2022/03/22 09:35:34;;;;;;;17.50;13.07;;;14.40;67.10;;;;;;5037216;28;20499;-64
2022/03/22 09:38:00;;;;;;;17.77;15.70;;;14.60;65.50;;;;;;5048752;28;20753;-68
2022/03/22 09:40:27;;;;;;;20.50;14.10;;;14.70;64.80;;;;;;5054439;28;20499;-64
2022/03/22 09:42:55;;;;;;;22.57;15.57;;;15.00;67.30;;;;;;5055092;28;20419;-64
2022/03/22 09:45:30;;;;;;;23.40;14.90;;;15.40;70.50;;;;;;5046619;28;20791;-64
2022/03/22 09:47:59;;;;;;;16.87;13.87;;;15.50;64.30;;;;;;5037693;28;20449;-64
2022/03/22 09:53:12;;;;;;;19.83;14.93;;;15.90;61.90;;;;;;5043368;28;20506;-67
2022/03/22 09:55:38;;;;;;;22.87;14.90;;;16.10;60.40;;;;;;5044521;28;20557;-64
2022/03/22 09:58:04;;;;;;;21.20;15.40;;;16.40;61.90;;;;;;5041582;28;20818;-67
2022/03/22 10:00:30;;;;;;;24.13;15.97;;;16.60;59.00;;;;;;5055646;28;20166;-64
2022/03/22 10:02:56;;;;;;;22.33;15.03;;;17.00;56.70;;;;;;5052550;28;20755;-64
2022/03/22 10:05:23;;;;;;;22.77;15.33;;;17.30;55.60;;;;;;5049745;28;20209;-64
2022/03/22 10:07:56;;;;;;;20.53;13.97;;;17.50;55.10;;;;;;5036775;28;20759;-68
2022/03/22 10:10:22;;;;;;;22.43;15.73;;;17.70;53.10;;;;;;5036912;28;20402;-68
2022/03/22 10:13:02;;;;;;;22.53;15.93;;;17.80;50.00;;;;;;5056142;28;20432;-65
2022/03/22 10:15:33;;;;;;;19.50;14.50;;;17.80;44.50;;;;;;5046935;28;20241;-64
2022/03/22 10:18:23;;;;;;;25.43;15.87;;;17.80;41.00;;;;;;5038829;28;20410;-68
2022/03/22 10:20:57;;;;;;;19.73;15.40;;;17.90;37.30;;;;;;5054679;28;20405;-68
2022/03/22 10:23:22;;;;;;;20.73;16.57;;;18.10;38.40;;;;;;5047915;28;20517;-64
2022/03/22 10:25:48;;;;;;;20.77;14.43;;;18.50;34.00;;;;;;5036974;28;20946;-65
2022/03/22 10:28:14;;;;;;;23.00;16.30;;;18.50;33.40;;;;;;5036331;28;20187;-68
2022/03/22 10:30:40;;;;;;;24.70;15.87;;;18.40;29.30;;;;;;5035782;28;20183;-65
2022/03/22 10:33:06;;;;;;;26.23;16.30;;;18.20;28.20;;;;;;5035757;28;20465;-69
2022/03/22 10:35:34;;;;;;;20.10;15.90;;;18.50;27.70;;;;;;5033485;28;20438;-66
2022/03/22 10:38:07;;;;;;;26.60;16.90;;;18.70;26.00;;;;;;5036236;28;20571;-64
2022/03/22 10:40:40;;;;;;;23.50;16.40;;;18.80;26.20;;;;;;5054639;28;20441;-67
2022/03/22 10:43:11;;;;;;;24.77;17.65;;;18.80;24.60;;;;;;5051662;28;20801;-65
2022/03/22 10:45:44;;;;;;;25.93;15.90;;;18.80;23.50;;;;;;5036649;28;20181;-68
2022/03/22 10:48:15;;;;;;;26.73;18.17;;;18.90;22.20;;;;;;5035125;28;20432;-69
2022/03/22 10:50:41;;;;;;;25.83;16.93;;;19.10;21.30;;;;;;5034855;28;20739;-65
2022/03/22 10:53:07;;;;;;;23.73;17.30;;;19.30;19.20;;;;;;5035594;28;20465;-68
2022/03/22 10:55:32;;;;;;;20.30;16.30;;;19.40;17.40;;;;;;5036382;28;20422;-64
2022/03/22 10:58:01;;;;;;;23.00;16.57;;;19.40;13.80;;;;;;5036433;28;20183;-67
2022/03/22 11:00:28;;;;;;;27.17;17.50;;;19.60;16.00;;;;;;5054107;28;20170;-68
2022/03/22 11:02:56;;;;;;;26.90;17.70;;;19.50;12.70;;;;;;5035563;28;20449;-68
2022/03/22 11:05:24;;;;;;;22.57;16.83;;;19.40;11.40;;;;;;5040266;28;20429;-68
2022/03/22 11:07:52;;;;;;;26.10;16.60;;;19.20;9.70;;;;;;5036538;28;20476;-65
2022/03/22 11:10:29;;;;;;;25.90;16.77;;;19.00;10.40;;;;;;5035621;28;20417;-68
2022/03/22 11:16:20;;;;;;;27.83;17.30;;;18.70;12.10;;;;;;5046926;28;20417;-65
2022/03/22 11:18:46;;;;;;;25.43;18.17;;;18.80;12.80;;;;;;5035984;28;20433;-68
2022/03/22 11:21:18;;;;;;;25.00;17.87;;;18.80;8.10;;;;;;5043252;28;20807;-69
2022/03/22 11:23:44;;;;;;;27.27;17.13;;;18.90;8.40;;;;;;5035082;28;20378;-65
2022/03/22 11:26:20;;;;;;;32.10;17.73;;;18.90;8.00;;;;;;5048229;28;20501;-68
2022/03/22 11:28:50;;;;;;;23.00;16.40;;;18.90;9.30;;;;;;5054150;28;20404;-69
2022/03/22 11:31:37;;;;;;;24.80;18.10;;;19.00;9.70;;;;;;5053688;28;20440;-65
2022/03/22 11:34:13;;;;;;;21.27;14.90;;;19.20;11.90;;;;;;5054168;28;20460;-65
2022/03/22 11:36:43;;;;;;;28.40;17.60;;;19.40;10.10;;;;;;5045393;28;20412;-69
2022/03/22 11:39:14;;;;;;;21.77;15.90;;;19.40;11.90;;;;;;5033963;28;20450;-65
2022/03/22 11:44:34;;;;;;;18.70;15.03;;;19.50;7.80;;;;;;5054808;28;20400;-65
2022/03/22 11:47:06;;;;;;;18.67;14.40;;;19.40;6.60;;;;;;5038446;28;20452;-69
2022/03/22 11:49:47;;;;;;;27.10;16.40;;;19.10;5.90;;;;;;5034512;28;20930;-66
2022/03/22 11:52:14;;;;;;;24.37;17.00;;;19.10;6.60;;;;;;5034502;28;20510;-64
2022/03/22 11:54:41;;;;;;;22.40;15.87;;;19.30;6.30;;;;;;5049221;28;20453;-69
2022/03/22 11:57:15;;;;;;;26.10;17.43;;;19.60;9.80;;;;;;5036940;28;20489;-70
2022/03/22 11:59:46;;;;;;;22.47;16.30;;;20.00;9.00;;;;;;5048769;28;20429;-69
2022/03/22 12:02:17;;;;;;;25.37;17.00;;;20.20;8.10;;;;;;5052610;28;20956;-66
2022/03/22 12:04:55;;;;;;;26.37;16.73;;;20.30;9.50;;;;;;5048555;28;20449;-66
2022/03/22 12:07:47;;;;;;;24.50;17.10;;;20.40;7.20;;;;;;5054057;28;20409;-66
2022/03/22 12:10:15;;;;;;;22.00;15.83;;;21.00;6.40;;;;;;5038565;28;20514;-68
2022/03/22 12:12:48;;;;;;;24.70;15.67;;;21.50;8.90;;;;;;5032976;28;20434;-69
2022/03/22 12:18:43;;;;;;;20.67;14.77;;;22.50;5.50;;;;;;5036916;28;20779;-69
2022/03/22 12:21:20;;;;;;;24.50;16.60;;;22.90;1.00;;;;;;5034299;28;20415;-65
2022/03/22 12:23:46;;;;;;;19.60;13.60;;;23.20;1.00;;;;;;5034086;28;20179;-70
2022/03/22 12:26:12;;;;;;;23.30;16.30;;;;;;;;;;5044916;28;20430;-69
2022/03/22 12:28:49;;;;;;;22.90;15.90;;;23.70;1.00;;;;;;5033042;28;20399;-66
2022/03/22 12:31:20;;;;;;;23.57;16.67;;;23.70;1.00;;;;;;5034189;28;20433;-69
2022/03/22 12:33:50;;;;;;;22.50;17.13;;;24.00;1.00;;;;;;5043290;28;21011;-69
2022/03/22 12:36:18;;;;;;;25.60;15.70;;;24.10;1.00;;;;;;5053028;28;20421;-67
2022/03/22 12:38:44;;;;;;;25.17;16.80;;;24.70;1.00;;;;;;5052701;28;20407;-70
2022/03/22 12:41:09;;;;;;;24.00;15.93;;;25.00;1.00;;;;;;5053605;28;20497;-70
2022/03/22 12:43:36;;;;;;;21.60;16.77;;;25.40;1.00;;;;;;5052763;28;20254;-68
2022/03/22 12:46:02;;;;;;;19.20;15.27;;;25.20;1.00;;;;;;5038391;28;20187;-69
2022/03/22 12:48:30;;;;;;;24.90;17.07;;;24.70;1.00;;;;;;5034391;28;20402;-71
2022/03/22 12:50:56;;;;;;;20.17;13.73;;;25.00;1.00;;;;;;5031939;28;20765;-70
2022/03/22 12:53:22;;;;;;;23.30;15.70;;;25.30;1.00;;;;;;5034512;28;20468;-65
2022/03/22 12:55:48;;;;;;;25.87;17.83;;;24.50;1.00;;;;;;5034469;28;20182;-69
2022/03/22 12:58:14;;;;;;;19.00;14.37;;;24.50;1.00;;;;;;5034835;28;20895;-64
2022/03/22 13:00:41;;;;;;;23.13;15.50;;;24.90;1.00;;;;;;5052110;28;20492;-70
2022/03/22 13:03:19;;;;;;;20.50;14.80;;;25.50;1.00;;;;;;5052606;28;20270;-68
2022/03/22 13:05:51;;;;;;;18.10;14.93;;;25.90;1.00;;;;;;5042992;28;20974;-67
2022/03/22 13:11:26;;;;;;;19.77;14.77;;;26.30;1.00;;;;;;5051186;28;20426;-67
2022/03/22 13:11:26;;;;;;;20.52;16.75;;;25.90;1.00;;;;;;5032188;28;20409;-68
2022/03/22 13:16:37;;;;;;;18.17;13.40;;;25.40;1.00;;;;;;5039200;28;20412;-65
2022/03/22 13:19:09;;;;;;;19.13;14.47;;;25.60;1.00;;;;;;5044983;28;20807;-68
2022/03/22 13:21:38;;;;;;;17.10;13.90;;;26.10;1.00;;;;;;5036191;28;20203;-65
2022/03/22 13:24:04;;;;;;;20.47;15.13;;;26.50;1.00;;;;;;5041908;28;20422;-65
2022/03/22 13:26:34;;;;;;;22.10;15.00;;;26.20;1.00;;;;;;5033390;28;20414;-69